Time;durP1;ratioP1;P1;durP2;ratioP2;P2;SDS_P1;SDS_P2;PMS_P1;PMS_P2;Temp;Humidity;BMP_temperature;BMP_pressure;BME280_temperature;BME280_humidity;BME280_pressure;Samples;Min_cycle;Max_cycle;Signal;HPM_P1;HPM_P2
2022/10/02 00:01:53;;;;;;;15.52;3.97;;;11.40;99.90;;;;;;4987148;28;20047;-76
2022/10/02 00:04:25;;;;;;;9.75;3.08;;;11.40;99.90;;;;;;4968420;28;20069;-76
2022/10/02 00:06:53;;;;;;;12.57;3.00;;;11.30;99.90;;;;;;5001768;28;20184;-80
2022/10/02 00:09:27;;;;;;;10.02;2.50;;;11.40;99.90;;;;;;5030793;28;20058;-79
2022/10/02 00:11:57;;;;;;;15.02;3.70;;;11.30;99.90;;;;;;4998538;28;20042;-75
2022/10/02 00:14:27;;;;;;;10.00;3.75;;;11.50;99.90;;;;;;5003007;28;20041;-80
2022/10/02 00:16:56;;;;;;;14.00;2.93;;;11.30;99.90;;;;;;5004262;28;20132;-74
2022/10/02 00:19:22;;;;;;;12.65;2.50;;;11.30;99.90;;;;;;5003101;28;20393;-78
2022/10/02 00:22:11;;;;;;;19.25;2.88;;;11.10;99.90;;;;;;4990667;28;20045;-80
2022/10/02 00:24:45;;;;;;;15.30;3.27;;;11.30;99.90;;;;;;4999965;28;20121;-80
2022/10/02 00:27:28;;;;;;;14.70;4.40;;;11.10;99.90;;;;;;5000042;28;20893;-80
2022/10/02 00:29:58;;;;;;;31.75;3.63;;;11.20;99.90;;;;;;5001230;28;20386;-80
2022/10/02 00:32:33;;;;;;;10.43;2.35;;;11.50;99.90;;;;;;4991697;28;20157;-79
2022/10/02 00:35:16;;;;;;;13.88;2.47;;;11.20;99.90;;;;;;4991613;28;20104;-75
2022/10/02 00:37:54;;;;;;;19.63;3.45;;;11.60;99.90;;;;;;4999818;28;20049;-80
2022/10/02 00:40:28;;;;;;;14.05;3.22;;;11.30;99.90;;;;;;4995601;28;20038;-80
2022/10/02 00:43:16;;;;;;;12.43;2.42;;;11.20;99.90;;;;;;5001540;28;20071;-77
2022/10/02 00:46:18;;;;;;;17.95;3.55;;;11.60;99.90;;;;;;4997378;28;20053;-78
2022/10/02 00:49:01;;;;;;;13.95;2.65;;;11.50;99.90;;;;;;5035020;28;20042;-77
2022/10/02 00:51:55;;;;;;;18.20;2.90;;;11.50;99.90;;;;;;4998656;28;20399;-75
2022/10/02 00:54:45;;;;;;;11.90;3.35;;;11.30;99.90;;;;;;4990506;28;20061;-78
2022/10/02 00:57:26;;;;;;;26.35;3.95;;;11.30;99.90;;;;;;5003452;28;20061;-75
2022/10/02 01:00:22;;;;;;;13.20;3.08;;;11.40;99.90;;;;;;5010397;28;20064;-75
2022/10/02 01:03:05;;;;;;;13.85;3.03;;;11.60;99.90;;;;;;4999097;28;20254;-79
2022/10/02 01:05:33;;;;;;;8.10;2.25;;;11.60;99.90;;;;;;4998380;28;20053;-80
2022/10/02 01:07:59;;;;;;;13.98;3.97;;;11.70;99.90;;;;;;5000481;28;20042;-77
2022/10/02 01:10:26;;;;;;;9.70;2.20;;;11.30;99.90;;;;;;5000345;28;20063;-79
2022/10/02 01:12:53;;;;;;;13.13;2.40;;;11.60;99.90;;;;;;4997699;28;20704;-80
2022/10/02 01:15:22;;;;;;;19.20;3.45;;;11.20;99.90;;;;;;4997654;28;20054;-77
2022/10/02 01:17:50;;;;;;;16.40;3.10;;;11.40;99.90;;;;;;4999804;28;20042;-78
2022/10/02 01:20:28;;;;;;;14.55;3.10;;;11.40;99.90;;;;;;4992526;28;20464;-79
2022/10/02 01:23:18;;;;;;;14.02;3.53;;;11.30;99.90;;;;;;4995254;28;20034;-80
2022/10/02 01:25:44;;;;;;;13.50;3.67;;;11.50;99.90;;;;;;5026906;28;20040;-80
2022/10/02 01:28:11;;;;;;;10.50;2.38;;;11.50;99.90;;;;;;4995918;28;20057;-77
2022/10/02 01:30:40;;;;;;;13.52;1.90;;;11.70;99.90;;;;;;5033155;28;20042;-78
2022/10/02 01:33:06;;;;;;;18.20;3.13;;;11.50;99.90;;;;;;4992495;28;20041;-76
2022/10/02 01:35:36;;;;;;;9.77;1.85;;;11.50;99.90;;;;;;4995377;28;20101;-73
2022/10/02 01:38:05;;;;;;;8.40;2.40;;;11.40;99.90;;;;;;4986181;28;20874;-79
2022/10/02 01:40:34;;;;;;;11.70;3.20;;;11.60;99.90;;;;;;5001325;28;20428;-76
2022/10/02 01:43:20;;;;;;;18.98;4.20;;;11.40;99.90;;;;;;4998663;28;20073;-78
2022/10/02 01:46:09;;;;;;;18.02;2.08;;;11.60;99.90;;;;;;4998500;28;20058;-79
2022/10/02 01:48:38;;;;;;;12.43;2.65;;;11.40;99.90;;;;;;4990540;28;20141;-74
2022/10/02 01:51:25;;;;;;;11.18;3.05;;;11.60;99.90;;;;;;4994884;28;20054;-79
2022/10/02 01:54:06;;;;;;;14.07;3.38;;;11.30;99.90;;;;;;4999524;28;20042;-79
2022/10/02 01:56:54;;;;;;;16.67;2.30;;;11.40;99.90;;;;;;4994520;28;20086;-73
2022/10/02 02:00:00;;;;;;;12.77;2.22;;;11.20;99.90;;;;;;4989905;28;20057;-80
2022/10/02 02:02:53;;;;;;;15.63;3.17;;;11.50;99.90;;;;;;5029055;28;20050;-81
2022/10/02 02:05:35;;;;;;;14.95;3.88;;;11.50;99.90;;;;;;4987825;28;20061;-80
2022/10/02 02:08:22;;;;;;;19.05;3.03;;;11.60;99.90;;;;;;4995457;28;20038;-78
2022/10/02 02:14:24;;;;;;;17.88;2.90;;;11.40;99.90;;;;;;4996166;28;20504;-77
2022/10/02 02:17:05;;;;;;;12.07;2.10;;;11.10;99.90;;;;;;4477100;22;22116;-77
2022/10/02 02:19:36;;;;;;;16.63;2.67;;;11.50;99.90;;;;;;5060456;28;20763;-79
2022/10/02 02:22:14;;;;;;;11.32;2.90;;;11.30;99.90;;;;;;5050092;28;20105;-80
2022/10/02 02:24:48;;;;;;;11.50;2.42;;;11.10;99.90;;;;;;5062131;28;20075;-76
2022/10/02 02:27:18;;;;;;;11.70;2.50;;;11.50;99.90;;;;;;5045082;28;20089;-79
2022/10/02 02:29:47;;;;;;;9.40;2.28;;;11.20;99.90;;;;;;5064320;28;20048;-75
2022/10/02 02:32:17;;;;;;;11.40;3.22;;;11.00;99.90;;;;;;5062191;28;20097;-77
2022/10/02 02:34:53;;;;;;;8.43;2.50;;;11.40;99.90;;;;;;5062402;28;20383;-79
2022/10/02 02:37:22;;;;;;;14.38;3.05;;;11.10;99.90;;;;;;5059631;28;20179;-79
2022/10/02 02:40:00;;;;;;;8.25;2.35;;;11.20;99.90;;;;;;5064192;28;20052;-81
2022/10/02 02:42:31;;;;;;;8.57;1.70;;;11.20;99.90;;;;;;5040098;28;20057;-79
2022/10/02 02:45:08;;;;;;;10.55;3.58;;;11.40;99.90;;;;;;5064625;28;20036;-80
2022/10/02 02:47:44;;;;;;;17.23;3.08;;;11.40;99.90;;;;;;5064857;28;20033;-79
2022/10/02 02:50:45;;;;;;;19.30;2.85;;;11.40;99.90;;;;;;5072050;28;20506;-75
2022/10/02 02:53:15;;;;;;;26.27;3.40;;;11.10;99.90;;;;;;5005555;28;20102;-76
2022/10/02 02:55:54;;;;;;;12.43;2.50;;;11.40;99.90;;;;;;5055900;28;20047;-81
2022/10/02 02:58:27;;;;;;;7.97;2.40;;;11.40;99.90;;;;;;5059486;28;20131;-79
2022/10/02 03:00:53;;;;;;;15.75;3.45;;;11.50;99.90;;;;;;5061792;28;20066;-76
2022/10/02 03:03:19;;;;;;;13.45;1.90;;;11.10;99.90;;;;;;5062096;28;20051;-79
2022/10/02 03:05:50;;;;;;;12.70;3.72;;;11.50;99.90;;;;;;5060976;28;20036;-78
2022/10/02 03:08:24;;;;;;;18.13;4.30;;;11.10;99.90;;;;;;5046968;28;20382;-75
2022/10/02 03:11:11;;;;;;;17.75;3.10;;;11.50;99.90;;;;;;5059950;28;20044;-79
2022/10/02 03:13:45;;;;;;;10.38;1.52;;;11.20;99.90;;;;;;5057417;28;20055;-79
2022/10/02 03:16:18;;;;;;;11.25;2.25;;;11.10;99.90;;;;;;5059393;28;20090;-77
2022/10/02 03:19:17;;;;;;;12.75;2.90;;;11.20;99.90;;;;;;5036538;28;20052;-77
2022/10/02 03:21:46;;;;;;;11.77;2.80;;;11.50;99.90;;;;;;5059154;28;20375;-80
2022/10/02 03:24:17;;;;;;;10.93;1.90;;;11.60;99.90;;;;;;5038853;28;20610;-73
2022/10/02 03:27:01;;;;;;;8.52;2.15;;;11.40;99.90;;;;;;5050927;28;20474;-80
2022/10/02 03:29:37;;;;;;;17.45;1.52;;;11.20;99.90;;;;;;5049273;28;20051;-76
2022/10/02 03:32:06;;;;;;;5.60;1.55;;;11.50;99.90;;;;;;5041429;28;20048;-78
2022/10/02 03:34:33;;;;;;;9.35;2.80;;;11.10;99.90;;;;;;5059743;28;20094;-79
2022/10/02 03:36:59;;;;;;;15.85;3.05;;;11.20;99.90;;;;;;5060453;28;20198;-77
2022/10/02 03:39:25;;;;;;;17.15;2.72;;;11.30;99.90;;;;;;5062158;28;20059;-75
2022/10/02 03:41:51;;;;;;;13.50;2.10;;;11.40;99.90;;;;;;5056554;28;20037;-80
2022/10/02 03:44:16;;;;;;;12.25;3.03;;;11.20;99.90;;;;;;5052031;28;20033;-81
2022/10/02 03:46:42;;;;;;;11.45;1.98;;;11.30;99.90;;;;;;5059187;28;20517;-78
2022/10/02 03:49:08;;;;;;;14.05;2.25;;;11.10;99.90;;;;;;5061672;28;20040;-79
2022/10/02 03:51:33;;;;;;;7.20;2.35;;;11.30;99.90;;;;;;5060316;28;20036;-77
2022/10/02 03:53:59;;;;;;;29.08;4.28;;;11.10;99.90;;;;;;5061565;28;20040;-80
2022/10/02 03:56:37;;;;;;;13.48;2.35;;;11.20;99.90;;;;;;5060855;28;20041;-81
2022/10/02 03:59:12;;;;;;;14.02;2.20;;;11.40;99.90;;;;;;5057881;28;20097;-78
2022/10/02 04:01:43;;;;;;;15.93;2.92;;;11.40;99.90;;;;;;5056601;28;20056;-81
2022/10/02 04:04:16;;;;;;;20.55;3.20;;;11.00;99.90;;;;;;5063141;28;20060;-81
2022/10/02 04:06:57;;;;;;;9.07;1.70;;;11.20;99.90;;;;;;5060384;28;20115;-76
2022/10/02 04:09:41;;;;;;;13.90;3.05;;;11.10;99.90;;;;;;5045307;28;20127;-77
2022/10/02 04:12:19;;;;;;;7.47;1.63;;;11.40;99.90;;;;;;5061293;28;20390;-77
2022/10/02 04:14:49;;;;;;;30.92;4.50;;;11.20;99.90;;;;;;5055962;28;20390;-81
2022/10/02 04:17:21;;;;;;;22.52;4.13;;;11.50;99.90;;;;;;5057108;28;20065;-80
2022/10/02 04:19:52;;;;;;;17.63;3.35;;;11.20;99.90;;;;;;5052559;28;20048;-74
2022/10/02 04:22:41;;;;;;;26.17;3.33;;;11.30;99.90;;;;;;5057775;28;20546;-80
2022/10/02 04:25:22;;;;;;;9.73;2.17;;;11.30;99.90;;;;;;5061169;28;20040;-79
2022/10/02 04:28:10;;;;;;;14.68;2.90;;;11.20;99.90;;;;;;5061560;28;20048;-77
2022/10/02 04:30:36;;;;;;;10.43;2.15;;;11.10;99.90;;;;;;5069057;28;20048;-83
2022/10/02 04:33:23;;;;;;;22.50;3.83;;;11.20;99.90;;;;;;5050931;28;20401;-82
2022/10/02 04:35:52;;;;;;;15.48;3.17;;;11.10;99.90;;;;;;5063630;28;20095;-78
2022/10/02 04:38:35;;;;;;;16.75;3.83;;;11.40;99.90;;;;;;5063470;28;20044;-80
2022/10/02 04:41:20;;;;;;;12.75;3.20;;;11.40;99.90;;;;;;5059500;28;20076;-81
2022/10/02 04:44:09;;;;;;;16.88;2.65;;;11.40;99.90;;;;;;5057922;28;20407;-81
2022/10/02 04:47:09;;;;;;;20.58;3.17;;;11.10;99.90;;;;;;5039014;28;20048;-75
2022/10/02 04:50:02;;;;;;;13.00;2.50;;;11.00;99.90;;;;;;5057807;28;20047;-80
2022/10/02 04:52:45;;;;;;;13.63;2.47;;;11.00;99.90;;;;;;5059752;28;20057;-73
2022/10/02 04:55:24;;;;;;;32.17;4.93;;;11.10;99.90;;;;;;5045405;28;20488;-75
2022/10/02 04:57:59;;;;;;;21.00;2.50;;;11.20;99.90;;;;;;5044740;28;20379;-74
2022/10/02 05:00:32;;;;;;;23.70;3.10;;;11.00;99.90;;;;;;5063904;28;20040;-80
2022/10/02 05:03:34;;;;;;;8.07;1.73;;;11.20;99.90;;;;;;5055868;28;20048;-78
2022/10/02 05:06:38;;;;;;;14.40;3.00;;;11.10;99.90;;;;;;5062012;28;20049;-79
2022/10/02 05:09:39;;;;;;;23.85;3.88;;;10.90;99.90;;;;;;5027127;28;20041;-81
2022/10/02 05:12:21;;;;;;;12.52;2.80;;;10.70;99.90;;;;;;5026036;28;20199;-76
2022/10/02 05:15:08;;;;;;;19.05;3.22;;;10.90;99.90;;;;;;5047603;28;20041;-76
2022/10/02 05:18:01;;;;;;;10.90;1.88;;;11.00;99.90;;;;;;5038157;28;20053;-80
2022/10/02 05:20:42;;;;;;;12.82;2.22;;;10.80;99.90;;;;;;5039804;28;20129;-80
2022/10/02 05:23:46;;;;;;;13.43;2.30;;;10.80;99.90;;;;;;5043723;28;20466;-80
2022/10/02 05:26:40;;;;;;;17.35;3.38;;;10.60;99.90;;;;;;5041811;28;20060;-75
2022/10/02 05:29:33;;;;;;;16.70;2.55;;;10.50;99.90;;;;;;5043235;28;20040;-79
2022/10/02 05:32:04;;;;;;;19.13;3.40;;;10.60;99.90;;;;;;5043271;28;20083;-80
2022/10/02 05:34:42;;;;;;;19.40;3.47;;;10.70;99.90;;;;;;5042639;28;20063;-80
2022/10/02 05:37:32;;;;;;;15.23;2.97;;;10.50;99.90;;;;;;5042955;28;20457;-81
2022/10/02 05:40:17;;;;;;;13.57;2.97;;;10.70;99.90;;;;;;5027589;28;20045;-74
2022/10/02 05:42:58;;;;;;;13.55;3.03;;;10.70;99.90;;;;;;5040581;28;20049;-76
2022/10/02 05:45:29;;;;;;;14.85;2.50;;;10.40;99.90;;;;;;5046482;28;20575;-79
2022/10/02 05:48:22;;;;;;;10.52;1.65;;;10.60;99.90;;;;;;5026204;28;20120;-76
2022/10/02 05:50:52;;;;;;;12.02;2.53;;;10.70;99.90;;;;;;5042491;28;20464;-82
2022/10/02 05:53:23;;;;;;;16.27;3.58;;;10.40;99.90;;;;;;5039664;28;20063;-79
2022/10/02 05:55:58;;;;;;;12.88;2.33;;;10.70;99.90;;;;;;5042230;28;20151;-76
2022/10/02 05:58:38;;;;;;;19.15;3.58;;;10.60;99.90;;;;;;5042730;28;20048;-78
2022/10/02 06:01:33;;;;;;;;;;;10.60;99.90;;;;;;5039086;28;20049;-79
2022/10/02 06:04:18;;;;;;;19.25;3.00;;;10.60;99.90;;;;;;5023724;28;20394;-79
2022/10/02 06:06:50;;;;;;;10.98;2.17;;;10.50;99.90;;;;;;5042118;28;20083;-75
2022/10/02 06:09:27;;;;;;;17.63;2.55;;;10.70;99.90;;;;;;5042908;28;20043;-79
2022/10/02 06:12:11;;;;;;;21.70;3.17;;;10.50;99.90;;;;;;5042923;28;20076;-76
2022/10/02 06:14:49;;;;;;;16.52;3.20;;;10.60;99.90;;;;;;5043146;28;20118;-79
2022/10/02 06:17:24;;;;;;;17.52;3.35;;;10.60;99.90;;;;;;5047421;28;20083;-80
2022/10/02 06:20:11;;;;;;;16.05;2.28;;;10.80;99.90;;;;;;5053099;28;20081;-79
2022/10/02 06:22:49;;;;;;;16.45;3.00;;;10.60;99.90;;;;;;5059211;28;20059;-79
2022/10/02 06:25:26;;;;;;;17.50;2.78;;;11.00;99.90;;;;;;5060981;28;20080;-81
2022/10/02 06:28:06;;;;;;;23.75;3.38;;;11.00;99.90;;;;;;5061529;28;20041;-81
2022/10/02 06:30:36;;;;;;;17.85;2.30;;;10.80;99.90;;;;;;5058964;28;20119;-76
2022/10/02 06:33:21;;;;;;;12.60;2.35;;;11.10;99.90;;;;;;5060767;28;20040;-81
2022/10/02 06:36:03;;;;;;;21.58;4.18;;;11.30;99.90;;;;;;5046835;28;20095;-78
2022/10/02 06:39:05;;;;;;;13.55;2.05;;;11.40;99.90;;;;;;5047323;28;20060;-77
2022/10/02 06:41:46;;;;;;;20.20;2.42;;;11.60;99.90;;;;;;5057232;28;20048;-77
2022/10/02 06:44:34;;;;;;;20.95;3.08;;;11.40;99.90;;;;;;5064451;28;20059;-76
2022/10/02 06:47:24;;;;;;;11.32;2.22;;;11.60;99.90;;;;;;5043454;28;20048;-78
2022/10/02 06:50:01;;;;;;;15.00;3.20;;;12.00;99.90;;;;;;5056868;28;20036;-79
2022/10/02 06:52:27;;;;;;;23.85;2.97;;;11.70;99.90;;;;;;5057186;28;20044;-77
2022/10/02 06:55:30;;;;;;;21.77;3.75;;;11.70;99.90;;;;;;5045203;28;20442;-77
2022/10/02 06:57:55;;;;;;;24.92;3.78;;;11.90;99.90;;;;;;5057542;28;20044;-79
2022/10/02 07:00:21;;;;;;;12.75;2.50;;;12.00;99.90;;;;;;5054944;28;20052;-81
2022/10/02 07:02:58;;;;;;;15.50;2.33;;;11.70;99.90;;;;;;5063029;28;20052;-80
2022/10/02 07:05:54;;;;;;;14.85;2.67;;;12.10;99.90;;;;;;5062690;28;20040;-83
2022/10/02 07:08:28;;;;;;;14.80;3.40;;;12.00;99.90;;;;;;5040034;28;20041;-78
2022/10/02 07:11:18;;;;;;;11.35;1.83;;;12.00;99.90;;;;;;5048974;28;20053;-81
2022/10/02 07:14:34;;;;;;;12.98;2.17;;;11.80;99.90;;;;;;5044844;28;20464;-79
2022/10/02 07:17:16;;;;;;;13.00;2.58;;;11.70;99.90;;;;;;4979749;28;20047;-81
2022/10/02 07:19:56;;;;;;;9.95;2.53;;;11.80;99.90;;;;;;5042142;28;20045;-74
2022/10/02 07:22:28;;;;;;;10.80;2.30;;;11.90;99.90;;;;;;5042683;28;20452;-75
2022/10/02 07:25:06;;;;;;;14.88;3.03;;;11.90;99.90;;;;;;5040792;28;20067;-76
2022/10/02 07:28:10;;;;;;;11.90;1.88;;;12.10;99.90;;;;;;5041476;28;20049;-75
2022/10/02 07:31:06;;;;;;;16.15;2.97;;;12.60;99.90;;;;;;5028932;28;20399;-78
2022/10/02 07:34:03;;;;;;;5.00;1.95;;;12.60;99.90;;;;;;5041303;28;20053;-81
2022/10/02 07:36:32;;;;;;;11.07;2.22;;;12.80;99.90;;;;;;5016364;28;20060;-76
2022/10/02 07:39:25;;;;;;;10.90;2.83;;;12.50;99.90;;;;;;5042544;28;20064;-78
2022/10/02 07:41:59;;;;;;;22.02;4.05;;;12.30;99.90;;;;;;5034549;28;20077;-81
2022/10/02 07:44:44;;;;;;;16.88;3.05;;;12.70;99.90;;;;;;5042202;28;20044;-82
2022/10/02 07:47:38;;;;;;;18.55;4.13;;;12.90;99.90;;;;;;5041333;28;20052;-75
2022/10/02 07:50:23;;;;;;;7.35;1.70;;;13.00;99.90;;;;;;5041656;28;20049;-80
2022/10/02 07:53:23;;;;;;;10.05;2.25;;;12.60;99.90;;;;;;5040627;28;20415;-79
2022/10/02 07:55:54;;;;;;;15.68;2.13;;;12.70;99.90;;;;;;5026520;28;20383;-80
2022/10/02 07:58:42;;;;;;;13.73;2.60;;;13.20;99.90;;;;;;5042428;28;20149;-76
2022/10/02 08:01:18;;;;;;;9.73;2.10;;;13.20;99.90;;;;;;5040559;28;20301;-79
2022/10/02 08:04:01;;;;;;;11.02;3.88;;;13.50;99.90;;;;;;5039992;28;20056;-79
2022/10/02 08:06:27;;;;;;;10.73;3.47;;;13.20;99.90;;;;;;5030096;28;20906;-77
2022/10/02 08:08:59;;;;;;;16.95;3.22;;;14.00;99.90;;;;;;5042437;28;20403;-78
2022/10/02 08:11:31;;;;;;;27.55;4.68;;;14.10;99.90;;;;;;5034321;28;20609;-76
2022/10/02 08:14:02;;;;;;;15.10;3.13;;;14.00;99.90;;;;;;5022323;28;20072;-81
2022/10/02 08:16:36;;;;;;;13.68;2.67;;;13.90;99.90;;;;;;5004420;28;20467;-80
2022/10/02 08:19:11;;;;;;;13.50;3.03;;;13.60;99.90;;;;;;5027906;28;20127;-81
2022/10/02 08:21:45;;;;;;;16.33;2.83;;;13.60;99.90;;;;;;5039241;28;20041;-83
2022/10/02 08:24:22;;;;;;;20.23;3.13;;;13.50;99.90;;;;;;5045004;28;20049;-80
2022/10/02 08:26:54;;;;;;;16.60;3.25;;;13.50;99.90;;;;;;5038546;28;20137;-81
2022/10/02 08:29:26;;;;;;;13.68;3.10;;;13.90;99.90;;;;;;5027306;28;20036;-80
2022/10/02 08:31:53;;;;;;;12.90;2.67;;;14.00;99.90;;;;;;5039656;28;20033;-74
2022/10/02 08:34:21;;;;;;;16.13;3.13;;;13.70;99.90;;;;;;5060829;28;20048;-83
2022/10/02 08:36:58;;;;;;;21.27;4.07;;;13.90;99.90;;;;;;5047137;28;20404;-82
2022/10/02 08:39:46;;;;;;;19.55;3.78;;;14.00;99.90;;;;;;5044729;28;20121;-82
2022/10/02 08:42:12;;;;;;;59.28;4.63;;;14.20;99.90;;;;;;5042976;28;20049;-73
2022/10/02 08:44:56;;;;;;;10.75;3.03;;;14.40;99.90;;;;;;5046007;28;20399;-74
2022/10/02 08:47:48;;;;;;;10.80;2.47;;;14.10;99.90;;;;;;5043372;28;20431;-78
2022/10/02 08:50:46;;;;;;;12.93;3.15;;;14.40;99.90;;;;;;5043984;28;20426;-77
2022/10/02 08:53:43;;;;;;;11.13;1.88;;;14.40;99.90;;;;;;5025726;28;20104;-74
2022/10/02 08:56:20;;;;;;;12.80;2.65;;;13.90;99.90;;;;;;5044474;28;20103;-77
2022/10/02 08:59:07;;;;;;;14.80;3.30;;;14.00;99.90;;;;;;5037456;28;20563;-79
2022/10/02 09:02:00;;;;;;;10.20;2.83;;;14.10;99.90;;;;;;5043590;28;20079;-78
2022/10/02 09:04:48;;;;;;;14.60;2.10;;;14.60;99.90;;;;;;5045425;28;20056;-79
2022/10/02 09:07:38;;;;;;;12.23;3.40;;;14.40;99.90;;;;;;5044093;28;20056;-78
2022/10/02 09:10:13;;;;;;;20.90;4.35;;;14.50;99.90;;;;;;5043801;28;20063;-77
2022/10/02 09:13:05;;;;;;;8.07;2.60;;;14.80;99.90;;;;;;5043468;28;20090;-78
2022/10/02 09:16:06;;;;;;;14.40;3.80;;;15.00;99.90;;;;;;5030648;28;20052;-77
2022/10/02 09:18:49;;;;;;;8.13;2.50;;;15.10;99.90;;;;;;5039517;28;20119;-75
2022/10/02 09:21:22;;;;;;;9.00;3.45;;;15.10;99.90;;;;;;5055330;28;20160;-76
2022/10/02 09:24:06;;;;;;;17.85;3.17;;;15.00;99.90;;;;;;5064809;28;20143;-78
2022/10/02 09:26:35;;;;;;;14.15;2.00;;;14.90;99.90;;;;;;5062113;28;20102;-78
2022/10/02 09:29:19;;;;;;;20.00;4.22;;;14.80;99.90;;;;;;5064775;28;20382;-73
2022/10/02 09:32:09;;;;;;;16.00;2.80;;;14.30;99.90;;;;;;5061472;28;20036;-79
2022/10/02 09:34:46;;;;;;;18.38;3.25;;;14.30;99.90;;;;;;5045194;28;20501;-76
2022/10/02 09:37:46;;;;;;;13.10;2.53;;;14.00;99.90;;;;;;5062632;28;20048;-77
2022/10/02 09:40:31;;;;;;;17.95;3.63;;;14.20;99.90;;;;;;5042417;28;20052;-78
2022/10/02 09:43:06;;;;;;;14.27;2.33;;;14.30;99.90;;;;;;5055843;28;20048;-74
2022/10/02 09:45:42;;;;;;;17.60;2.92;;;14.70;99.90;;;;;;5042867;28;20056;-74
2022/10/02 09:48:29;;;;;;;12.05;2.85;;;14.70;99.90;;;;;;5057578;28;20041;-78
2022/10/02 09:51:03;;;;;;;14.98;4.03;;;15.00;99.90;;;;;;5043747;28;20175;-78
2022/10/02 09:53:47;;;;;;;23.02;3.70;;;15.10;99.90;;;;;;5062850;28;20056;-75
2022/10/02 09:56:44;;;;;;;12.45;2.80;;;15.40;99.90;;;;;;5063225;28;20600;-79
2022/10/02 09:59:28;;;;;;;19.33;4.07;;;15.50;99.90;;;;;;5054418;28;20800;-76
2022/10/02 10:02:19;;;;;;;16.52;2.28;;;15.50;99.90;;;;;;5061382;28;20115;-76
2022/10/02 10:05:07;;;;;;;22.60;4.03;;;15.60;99.90;;;;;;4999516;28;20049;-78
2022/10/02 10:07:58;;;;;;;15.70;3.67;;;15.40;99.90;;;;;;5051697;28;20048;-79
2022/10/02 10:10:46;;;;;;;11.25;2.90;;;15.40;99.90;;;;;;5049199;28;20048;-78
2022/10/02 10:13:43;;;;;;;20.15;2.97;;;15.10;99.90;;;;;;5055234;28;20029;-75
2022/10/02 10:16:30;;;;;;;13.90;3.13;;;15.10;99.90;;;;;;5063711;28;20048;-76
2022/10/02 10:19:31;;;;;;;13.02;2.40;;;14.90;99.90;;;;;;5062596;28;20676;-75
2022/10/02 10:22:37;;;;;;;12.75;2.05;;;14.90;99.90;;;;;;5055351;28;20048;-76
2022/10/02 10:25:12;;;;;;;17.98;3.42;;;14.80;99.90;;;;;;5044438;28;20091;-76
2022/10/02 10:28:02;;;;;;;8.80;2.70;;;14.60;99.90;;;;;;5051296;28;20040;-74
2022/10/02 10:30:31;;;;;;;;;;;14.50;99.90;;;;;;5062739;28;20087;-76
2022/10/02 10:33:19;;;;;;;10.82;2.67;;;14.50;99.90;;;;;;5063166;28;19971;-77
2022/10/02 10:35:54;;;;;;;8.90;2.17;;;14.50;99.90;;;;;;5044622;28;20036;-78
2022/10/02 10:38:31;;;;;;;13.73;2.85;;;14.40;99.90;;;;;;5063345;28;20455;-76
2022/10/02 10:41:11;;;;;;;18.40;4.07;;;14.30;99.90;;;;;;5044015;28;20081;-78
2022/10/02 10:44:10;;;;;;;18.65;3.63;;;14.70;99.90;;;;;;5055009;28;20040;-76
2022/10/02 10:46:59;;;;;;;11.95;3.60;;;14.80;99.90;;;;;;5061663;28;20127;-78
2022/10/02 10:50:03;;;;;;;34.72;4.38;;;15.30;99.90;;;;;;5062371;28;20048;-76
2022/10/02 10:52:53;;;;;;;18.63;3.70;;;15.60;99.90;;;;;;5062213;28;20045;-74
2022/10/02 10:55:38;;;;;;;12.32;3.08;;;15.30;99.90;;;;;;5064732;28;20079;-75
2022/10/02 10:58:35;;;;;;;16.75;3.72;;;15.00;99.90;;;;;;5060775;28;20055;-77
2022/10/02 11:01:18;;;;;;;18.48;3.70;;;14.80;99.90;;;;;;5056669;28;20041;-73
2022/10/02 11:04:03;;;;;;;14.70;2.50;;;14.80;99.90;;;;;;5061763;28;20067;-78
2022/10/02 11:06:57;;;;;;;13.93;3.30;;;14.60;99.90;;;;;;5043820;28;20435;-78
2022/10/02 11:09:43;;;;;;;15.93;3.15;;;14.70;99.90;;;;;;5044154;28;20048;-76
2022/10/02 11:12:40;;;;;;;13.15;2.45;;;14.90;99.90;;;;;;5044276;28;20060;-81
2022/10/02 11:15:26;;;;;;;21.17;3.03;;;15.20;99.90;;;;;;5044400;28;20041;-76
2022/10/02 11:18:19;;;;;;;13.88;3.95;;;15.50;99.90;;;;;;5037275;28;20096;-77
2022/10/02 11:21:11;;;;;;;36.60;4.05;;;15.40;99.90;;;;;;5049591;28;20060;-77
2022/10/02 11:23:43;;;;;;;13.55;3.05;;;15.50;99.90;;;;;;5051536;28;20622;-81
2022/10/02 11:29:22;;;;;;;17.10;3.05;;;16.00;99.90;;;;;;4394503;22;20132;-80
2022/10/02 11:32:03;;;;;;;12.90;2.72;;;16.00;99.90;;;;;;5003822;28;20053;-81
2022/10/02 11:34:48;;;;;;;12.80;2.55;;;16.20;99.90;;;;;;5040445;28;20935;-81
2022/10/02 11:37:40;;;;;;;10.45;3.20;;;16.40;99.90;;;;;;5021138;28;20077;-80
2022/10/02 11:40:30;;;;;;;9.80;1.95;;;16.50;99.90;;;;;;5003592;28;20038;-81
2022/10/02 11:43:27;;;;;;;5.40;1.45;;;16.60;99.90;;;;;;5002003;28;20049;-79
2022/10/02 11:46:20;;;;;;;8.05;1.55;;;16.40;99.90;;;;;;5008131;28;20049;-80
2022/10/02 11:49:07;;;;;;;9.90;1.98;;;16.60;99.90;;;;;;5022189;28;20446;-77
2022/10/02 11:51:53;;;;;;;12.75;3.10;;;16.60;99.90;;;;;;5015719;28;20045;-79
2022/10/02 11:54:39;;;;;;;13.93;2.40;;;16.60;99.90;;;;;;5008525;28;20069;-79
2022/10/02 11:57:19;;;;;;;9.30;2.60;;;16.30;99.90;;;;;;5012426;28;20117;-81
2022/10/02 12:00:12;;;;;;;11.53;2.20;;;16.20;99.90;;;;;;5017294;28;20178;-80
2022/10/02 12:02:38;;;;;;;14.35;2.72;;;16.20;99.90;;;;;;5021739;28;20312;-83
2022/10/02 12:05:34;;;;;;;11.35;2.58;;;16.20;99.90;;;;;;5033884;28;20075;-81
2022/10/02 12:08:30;;;;;;;17.58;3.60;;;16.50;99.90;;;;;;5002022;28;20579;-84
2022/10/02 12:11:13;;;;;;;16.08;2.95;;;16.50;99.90;;;;;;5018897;28;20712;-77
2022/10/02 12:13:59;;;;;;;10.13;1.55;;;16.70;99.90;;;;;;5004548;28;20052;-75
2022/10/02 12:16:40;;;;;;;10.02;1.77;;;17.00;99.90;;;;;;5025250;28;20045;-80
2022/10/02 12:28:53;;;;;;;11.63;3.35;;;16.40;99.90;;;;;;5004759;28;20483;-80
2022/10/02 12:31:38;;;;;;;15.00;3.25;;;16.70;99.90;;;;;;5019372;28;20060;-80
2022/10/02 12:34:30;;;;;;;7.82;2.53;;;16.90;99.90;;;;;;5002166;28;20156;-79
2022/10/02 12:37:11;;;;;;;13.32;3.70;;;16.90;99.90;;;;;;5005246;28;20345;-78
2022/10/02 12:39:53;;;;;;;11.05;2.55;;;17.10;99.90;;;;;;5020531;28;20033;-81
2022/10/02 12:42:59;;;;;;;12.80;3.30;;;17.00;99.90;;;;;;5001325;28;20123;-75
2022/10/02 12:45:30;;;;;;;12.45;1.88;;;16.40;99.90;;;;;;5000850;28;20611;-82
2022/10/02 12:48:05;;;;;;;12.93;2.95;;;16.20;99.90;;;;;;5011295;28;20096;-78
2022/10/02 12:50:42;;;;;;;25.48;3.47;;;16.00;99.90;;;;;;5009089;28;20054;-76
2022/10/02 12:53:28;;;;;;;15.50;2.95;;;15.90;99.90;;;;;;5027291;28;20091;-82
2022/10/02 12:56:27;;;;;;;12.07;3.45;;;16.10;99.90;;;;;;5026220;28;20049;-78
2022/10/02 12:58:59;;;;;;;38.42;6.25;;;16.00;99.90;;;;;;5025598;28;20048;-81
2022/10/02 13:02:04;;;;;;;10.65;2.63;;;16.30;99.90;;;;;;5025708;28;20128;-78
2022/10/02 13:04:45;;;;;;;11.85;3.22;;;16.60;99.90;;;;;;5024363;28;20053;-80
2022/10/02 13:07:29;;;;;;;9.30;2.20;;;16.70;99.90;;;;;;5016801;28;20107;-77
2022/10/02 13:09:55;;;;;;;11.55;2.53;;;16.30;99.90;;;;;;5001677;28;20049;-83
2022/10/02 13:12:37;;;;;;;17.38;3.30;;;16.00;99.90;;;;;;5010472;28;20041;-81
2022/10/02 13:15:36;;;;;;;18.00;2.97;;;15.80;99.90;;;;;;5024078;28;20038;-76
2022/10/02 13:18:01;;;;;;;10.90;2.20;;;15.80;99.90;;;;;;5010586;28;20490;-83
2022/10/02 13:20:52;;;;;;;18.77;3.38;;;15.80;99.90;;;;;;5012938;28;20037;-81
2022/10/02 13:23:31;;;;;;;14.82;3.63;;;16.00;99.90;;;;;;5012196;28;20060;-82
2022/10/02 13:26:30;;;;;;;13.77;3.30;;;16.20;99.90;;;;;;4987659;28;20085;-79
2022/10/02 13:29:18;;;;;;;16.48;3.15;;;16.50;99.90;;;;;;5009662;28;20149;-80
2022/10/02 13:31:50;;;;;;;14.13;3.00;;;16.60;99.90;;;;;;5007219;28;20056;-78
2022/10/02 13:34:40;;;;;;;11.85;1.60;;;16.80;99.90;;;;;;4997079;28;20133;-79
2022/10/02 13:37:34;;;;;;;13.68;3.15;;;16.90;99.90;;;;;;4996367;28;20037;-78
2022/10/02 13:40:25;;;;;;;23.13;4.05;;;17.00;99.90;;;;;;5021659;28;20038;-82
2022/10/02 13:43:11;;;;;;;17.13;2.53;;;17.20;99.90;;;;;;4987095;28;20539;-80
2022/10/02 13:45:42;;;;;;;8.05;2.70;;;17.20;99.90;;;;;;5019146;28;20042;-79
2022/10/02 13:48:17;;;;;;;11.55;2.88;;;17.30;99.90;;;;;;5020919;28;20171;-77
2022/10/02 13:51:11;;;;;;;8.18;2.30;;;17.40;99.90;;;;;;5017950;28;20040;-78
2022/10/02 13:54:02;;;;;;;13.18;2.50;;;17.30;99.90;;;;;;5017713;28;20060;-79
2022/10/02 13:56:49;;;;;;;15.60;4.13;;;17.10;99.90;;;;;;5018166;28;20392;-79
2022/10/02 13:59:34;;;;;;;12.93;3.35;;;16.80;99.90;;;;;;5020560;28;20171;-80
2022/10/02 14:02:00;;;;;;;15.50;1.80;;;16.70;99.90;;;;;;5004257;28;20488;-81
2022/10/02 14:04:56;;;;;;;23.52;3.50;;;16.40;99.90;;;;;;5011179;28;20073;-80
2022/10/02 14:07:44;;;;;;;8.82;1.92;;;16.40;99.90;;;;;;5003855;28;20129;-80